createdAt,value
2023-05-14T00:01:33.098Z,52.42
2023-05-14T00:04:00.517Z,52.39
2023-05-14T00:06:27.584Z,52.71
2023-05-14T00:08:54.708Z,52.74
2023-05-14T00:11:21.797Z,53.16
2023-05-14T00:13:50.127Z,52.80
2023-05-14T00:16:17.296Z,52.86
2023-05-14T00:18:44.457Z,52.89
2023-05-14T00:21:11.665Z,52.72
2023-05-14T00:23:38.900Z,52.21
2023-05-14T00:26:06.070Z,52.36
2023-05-14T00:28:33.162Z,52.16
2023-05-14T00:31:00.470Z,52.04
2023-05-14T00:33:28.012Z,52.14
2023-05-14T00:35:55.123Z,52.04
2023-05-14T00:38:24.102Z,51.69
2023-05-14T00:40:51.384Z,52.26
2023-05-14T00:43:20.899Z,52.35
2023-05-14T00:45:53.939Z,52.51
2023-05-14T00:48:22.746Z,52.47
2023-05-14T00:50:51.106Z,52.29
2023-05-14T00:53:21.744Z,52.39
2023-05-14T00:55:50.682Z,52.59
2023-05-14T00:58:19.418Z,52.72
2023-05-14T01:00:46.586Z,52.65
2023-05-14T01:03:13.935Z,52.92
2023-05-14T01:06:00.895Z,52.58
2023-05-14T01:08:55.853Z,52.86
2023-05-14T01:11:40.340Z,53.00
2023-05-14T01:14:42.973Z,53.29
2023-05-14T01:17:13.474Z,53.29
2023-05-14T01:19:42.733Z,53.81
2023-05-14T01:22:11.006Z,53.79
2023-05-14T01:24:39.043Z,53.72
2023-05-14T01:27:20.141Z,53.73
2023-05-14T01:30:00.991Z,53.72
2023-05-14T01:32:29.519Z,53.32
2023-05-14T01:34:58.621Z,53.54
2023-05-14T01:37:28.089Z,53.50
2023-05-14T01:39:56.706Z,53.70
2023-05-14T01:42:23.934Z,53.89
2023-05-14T01:44:51.171Z,53.86
2023-05-14T01:47:18.429Z,54.21
2023-05-14T01:49:45.594Z,54.29
2023-05-14T01:52:12.641Z,54.28
2023-05-14T01:54:39.710Z,54.17
2023-05-14T01:57:06.827Z,54.25
2023-05-14T01:59:33.902Z,54.40
2023-05-14T02:02:01.124Z,54.44
2023-05-14T02:04:28.230Z,54.37
2023-05-14T02:06:55.375Z,54.12
2023-05-14T02:09:24.928Z,54.26
2023-05-14T02:11:52.113Z,54.34
2023-05-14T02:14:19.176Z,54.68
2023-05-14T02:16:46.531Z,55.00
2023-05-14T02:19:13.691Z,55.45
2023-05-14T02:21:40.775Z,55.48
2023-05-14T02:24:07.978Z,55.55
2023-05-14T02:26:35.549Z,55.74
2023-05-14T02:29:02.573Z,56.03
2023-05-14T02:31:29.735Z,56.50
2023-05-14T02:33:57.203Z,56.76
2023-05-14T02:36:24.208Z,57.19
2023-05-14T02:38:51.451Z,57.46
2023-05-14T02:41:18.583Z,57.79
2023-05-14T02:43:46.220Z,57.81
2023-05-14T02:46:14.299Z,57.79
2023-05-14T02:48:41.351Z,58.48
2023-05-14T02:51:08.456Z,58.30
2023-05-14T02:53:35.566Z,58.21
2023-05-14T02:56:02.878Z,58.72
2023-05-14T02:58:30.073Z,58.65
2023-05-14T03:00:57.210Z,58.60
2023-05-14T03:03:24.959Z,58.80
2023-05-14T03:05:52.803Z,58.89
2023-05-14T03:08:19.821Z,59.00
2023-05-14T03:10:46.914Z,59.18
2023-05-14T03:13:17.770Z,58.97
2023-05-14T03:15:45.177Z,58.98
2023-05-14T03:18:12.622Z,58.79
2023-05-14T03:20:39.944Z,58.82
2023-05-14T03:23:07.105Z,58.65
2023-05-14T03:25:34.543Z,58.29
2023-05-14T03:28:01.609Z,58.21
2023-05-14T03:30:28.925Z,58.31
2023-05-14T03:32:57.221Z,58.44
2023-05-14T03:35:24.310Z,58.20
2023-05-14T03:37:53.081Z,58.20
2023-05-14T03:40:21.516Z,58.24
2023-05-14T03:42:48.854Z,57.99
2023-05-14T03:45:16.630Z,58.38
2023-05-14T03:47:43.794Z,58.55
2023-05-14T03:50:11.813Z,58.61
2023-05-14T03:52:40.472Z,58.76
2023-05-14T03:55:08.976Z,58.59
2023-05-14T03:57:36.901Z,58.59
2023-05-14T04:00:07.685Z,58.71
2023-05-14T04:02:43.864Z,58.77
2023-05-14T04:05:11.447Z,58.77
2023-05-14T04:07:38.689Z,58.45
2023-05-14T04:10:06.860Z,58.23
2023-05-14T04:12:35.954Z,57.88
2023-05-14T04:15:04.198Z,57.70
2023-05-14T04:17:33.902Z,57.08
2023-05-14T04:20:02.053Z,57.19
2023-05-14T04:22:29.091Z,57.14
2023-05-14T04:24:56.096Z,57.17
2023-05-14T04:27:23.289Z,57.11
2023-05-14T04:29:50.958Z,57.19
2023-05-14T04:32:18.389Z,56.72
2023-05-14T04:34:46.938Z,56.40
2023-05-14T04:37:14.282Z,55.73
2023-05-14T04:39:41.548Z,55.40
2023-05-14T04:42:08.676Z,55.00
2023-05-14T04:44:36.347Z,54.59
2023-05-14T04:47:04.325Z,54.63
2023-05-14T04:49:31.567Z,54.26
2023-05-14T04:51:58.664Z,53.99
2023-05-14T04:54:25.775Z,53.14
2023-05-14T04:56:52.884Z,52.84
2023-05-14T04:59:19.884Z,52.29
2023-05-14T05:01:47.032Z,51.35
2023-05-14T05:04:14.182Z,50.75
2023-05-14T05:06:41.306Z,50.55
2023-05-14T05:09:09.524Z,50.25
2023-05-14T05:11:36.606Z,49.64
2023-05-14T05:14:03.702Z,49.22
2023-05-14T05:16:30.962Z,48.96
2023-05-14T05:18:58.206Z,48.87
2023-05-14T05:21:25.662Z,48.38
2023-05-14T05:23:52.707Z,48.14
2023-05-14T05:26:19.822Z,47.93
2023-05-14T05:28:46.918Z,47.66
2023-05-14T05:31:14.082Z,47.44
2023-05-14T05:33:41.472Z,47.17
2023-05-14T05:36:08.873Z,46.88
2023-05-14T05:38:35.991Z,46.79
2023-05-14T05:41:03.126Z,46.71
2023-05-14T05:43:30.144Z,46.74
2023-05-14T05:45:57.169Z,46.63
2023-05-14T05:48:24.444Z,46.27
2023-05-14T05:50:51.872Z,45.72
2023-05-14T05:53:18.955Z,45.09
2023-05-14T05:55:46.025Z,44.98
2023-05-14T05:58:15.779Z,44.71
2023-05-14T06:00:43.102Z,44.65
2023-05-14T06:03:11.903Z,44.75
2023-05-14T06:05:39.116Z,44.93
2023-05-14T06:08:06.594Z,44.84
2023-05-14T06:10:34.491Z,44.04
2023-05-14T06:13:01.816Z,43.75
2023-05-14T06:15:28.876Z,43.55
2023-05-14T06:17:56.043Z,42.98
2023-05-14T06:20:23.426Z,42.44
2023-05-14T06:22:50.698Z,41.83
2023-05-14T06:25:18.134Z,41.78
2023-05-14T06:27:45.376Z,41.42
2023-05-14T06:30:13.246Z,41.76
2023-05-14T06:32:40.427Z,41.34
2023-05-14T06:35:08.425Z,41.15
2023-05-14T06:37:35.533Z,40.84
2023-05-14T06:40:03.765Z,40.11
2023-05-14T06:42:30.831Z,40.32
2023-05-14T06:44:58.672Z,40.50
2023-05-14T06:47:25.824Z,40.73
2023-05-14T06:49:53.020Z,39.99
2023-05-14T06:52:20.115Z,39.94
2023-05-14T06:54:47.162Z,39.24
2023-05-14T06:57:14.172Z,40.08
2023-05-14T06:59:41.468Z,40.04
2023-05-14T07:02:08.564Z,40.08
2023-05-14T07:04:36.545Z,39.66
2023-05-14T07:07:03.983Z,39.46
2023-05-14T07:09:31.007Z,39.30
2023-05-14T07:11:58.183Z,39.22
2023-05-14T07:14:25.381Z,38.96
2023-05-14T07:16:52.540Z,38.72
2023-05-14T07:19:19.663Z,38.94
2023-05-14T07:21:46.855Z,39.24
2023-05-14T07:24:14.031Z,38.83
2023-05-14T07:26:41.474Z,38.82
2023-05-14T07:29:08.813Z,38.48
2023-05-14T07:31:36.317Z,38.50
2023-05-14T07:34:03.452Z,38.21
2023-05-14T07:36:30.942Z,38.42
2023-05-14T07:38:58.109Z,38.49
2023-05-14T07:41:25.145Z,37.87
2023-05-14T07:43:52.226Z,37.56
2023-05-14T07:46:19.361Z,37.62
2023-05-14T07:48:46.510Z,37.78
2023-05-14T07:51:13.651Z,37.89
2023-05-14T07:53:41.228Z,37.43
2023-05-14T07:56:08.895Z,37.06
2023-05-14T07:58:36.219Z,37.46
2023-05-14T08:01:07.112Z,37.51
2023-05-14T08:03:34.545Z,37.13
2023-05-14T08:06:01.704Z,37.55
2023-05-14T08:08:28.824Z,37.04
2023-05-14T08:10:55.958Z,37.15
2023-05-14T08:13:23.084Z,37.00
2023-05-14T08:15:50.617Z,37.11
2023-05-14T08:18:17.667Z,37.00
2023-05-14T08:20:44.772Z,36.59
2023-05-14T08:23:11.992Z,36.26
2023-05-14T08:25:39.223Z,37.03
2023-05-14T08:28:06.962Z,36.62
2023-05-14T08:30:34.407Z,36.03
2023-05-14T08:33:01.532Z,35.81
2023-05-14T08:35:28.714Z,36.23
2023-05-14T08:37:57.142Z,36.06
2023-05-14T08:40:24.450Z,35.72
2023-05-14T08:42:52.498Z,35.37
2023-05-14T08:45:34.032Z,35.12
2023-05-14T08:48:05.188Z,35.00
2023-05-14T08:50:32.855Z,34.90
2023-05-14T08:53:00.009Z,34.77
2023-05-14T08:55:28.348Z,34.71
2023-05-14T08:57:56.168Z,34.96
2023-05-14T09:00:23.712Z,34.54
2023-05-14T09:02:51.752Z,33.96
2023-05-14T09:05:20.133Z,34.11
2023-05-14T09:07:47.450Z,33.26
2023-05-14T09:10:16.442Z,33.26
2023-05-14T09:12:43.620Z,32.53
2023-05-14T09:15:11.095Z,32.71
2023-05-14T09:17:38.253Z,33.11
2023-05-14T09:20:06.970Z,33.29
2023-05-14T09:22:35.706Z,33.24
2023-05-14T09:25:12.277Z,34.00
2023-05-14T09:27:39.730Z,34.24
2023-05-14T09:30:12.299Z,33.75
2023-05-14T09:32:46.222Z,33.58
2023-05-14T09:35:19.722Z,33.25
2023-05-14T09:37:50.457Z,32.61
2023-05-14T09:40:21.404Z,32.14
2023-05-14T09:42:49.559Z,31.93
2023-05-14T09:45:17.554Z,31.31
2023-05-14T09:47:45.450Z,31.43
2023-05-14T09:50:13.385Z,31.03
2023-05-14T09:52:40.530Z,30.52
2023-05-14T09:55:08.358Z,30.68
2023-05-14T09:57:35.923Z,30.19
2023-05-14T10:00:03.986Z,30.71
2023-05-14T10:02:37.951Z,30.52
2023-05-14T10:05:07.226Z,30.87
2023-05-14T10:07:41.747Z,30.58
2023-05-14T10:10:16.991Z,30.67
2023-05-14T10:12:58.661Z,30.49
2023-05-14T10:15:38.244Z,30.08
2023-05-14T10:18:13.668Z,30.29
2023-05-14T10:20:41.637Z,29.92
2023-05-14T10:23:09.081Z,29.57
2023-05-14T10:25:37.651Z,29.61
2023-05-14T10:28:06.254Z,29.10
2023-05-14T10:30:33.433Z,29.61
2023-05-14T10:33:16.548Z,29.35
2023-05-14T10:36:02.405Z,29.13
2023-05-14T10:38:32.860Z,29.98
2023-05-14T10:41:03.978Z,30.32
2023-05-14T10:43:36.934Z,30.60
2023-05-14T10:46:04.541Z,30.75
2023-05-14T10:48:33.758Z,30.87
2023-05-14T10:51:02.901Z,31.17
2023-05-14T10:53:38.617Z,31.05
2023-05-14T10:56:14.318Z,31.55
2023-05-14T10:58:45.956Z,31.92
2023-05-14T11:01:14.992Z,32.12
2023-05-14T11:03:45.691Z,32.08
2023-05-14T11:06:15.930Z,32.33
2023-05-14T11:08:44.697Z,31.76
2023-05-14T11:11:13.401Z,32.16
2023-05-14T11:13:43.016Z,31.44
2023-05-14T11:18:42.013Z,31.52
2023-05-14T11:21:09.529Z,31.23
2023-05-14T11:23:36.794Z,31.56
2023-05-14T11:26:04.387Z,32.03
2023-05-14T11:28:31.525Z,30.91
2023-05-14T11:30:59.224Z,30.44
2023-05-14T11:33:28.239Z,29.95
2023-05-14T11:35:58.533Z,30.23
2023-05-14T11:38:25.771Z,30.33
2023-05-14T11:40:58.552Z,29.66
2023-05-14T11:43:29.230Z,29.71
2023-05-14T11:45:57.021Z,28.92
2023-05-14T11:48:24.594Z,28.88
2023-05-14T11:50:53.179Z,29.28
2023-05-14T11:53:31.243Z,28.88
2023-05-14T11:55:58.479Z,28.50
2023-05-14T11:58:26.197Z,27.47
2023-05-14T12:00:55.746Z,27.60
2023-05-14T12:03:26.259Z,27.52
2023-05-14T12:05:59.643Z,27.77
2023-05-14T12:08:29.264Z,28.12
2023-05-14T12:10:58.814Z,27.62
2023-05-14T12:13:28.431Z,27.16
2023-05-14T12:15:59.387Z,26.34
2023-05-14T12:18:29.388Z,27.29
2023-05-14T12:21:02.512Z,26.82
2023-05-14T12:23:31.788Z,26.40
2023-05-14T12:26:08.290Z,26.67
2023-05-14T12:28:38.850Z,25.88
2023-05-14T12:31:06.507Z,25.39
2023-05-14T12:33:33.905Z,24.89
2023-05-14T12:36:17.555Z,24.81
2023-05-14T12:38:49.083Z,24.27
2023-05-14T12:41:17.374Z,22.64
2023-05-14T12:43:44.849Z,21.45
2023-05-14T12:46:11.929Z,19.71
2023-05-14T12:48:39.046Z,19.95
2023-05-14T12:51:06.648Z,20.57
2023-05-14T12:53:35.312Z,21.34
2023-05-14T12:56:02.578Z,21.51
2023-05-14T12:58:30.028Z,21.93
2023-05-14T13:00:57.151Z,21.92
2023-05-14T13:03:24.420Z,21.97
2023-05-14T13:05:52.817Z,22.35
2023-05-14T13:08:21.681Z,22.84
2023-05-14T13:10:48.702Z,23.32
2023-05-14T13:13:16.286Z,23.98
2023-05-14T13:15:43.453Z,23.38
2023-05-14T13:18:10.546Z,22.63
2023-05-14T13:20:37.654Z,22.32
2023-05-14T13:23:04.790Z,22.70
2023-05-14T13:25:31.845Z,23.42
2023-05-14T13:27:59.110Z,24.36
2023-05-14T13:30:26.188Z,24.83
2023-05-14T13:32:53.415Z,25.37
2023-05-14T13:35:20.660Z,26.08
2023-05-14T13:37:47.760Z,26.03
2023-05-14T13:40:14.816Z,26.13
2023-05-14T13:42:41.900Z,26.80
2023-05-14T13:45:09.712Z,27.07
2023-05-14T13:47:36.857Z,27.08
2023-05-14T13:50:04.308Z,27.22
2023-05-14T13:52:31.637Z,27.12
2023-05-14T13:54:58.795Z,27.37
2023-05-14T13:57:26.495Z,27.69
2023-05-14T13:59:53.576Z,27.98
2023-05-14T14:02:20.898Z,28.70
2023-05-14T14:04:49.408Z,29.31
2023-05-14T14:07:16.615Z,29.64
2023-05-14T14:09:45.161Z,30.32
2023-05-14T14:12:12.258Z,31.36
2023-05-14T14:14:42.245Z,31.83
2023-05-14T14:17:09.539Z,31.77
2023-05-14T14:19:36.849Z,30.79
2023-05-14T14:22:04.380Z,30.58
2023-05-14T14:24:31.745Z,30.24
2023-05-14T14:26:58.845Z,29.21
2023-05-14T14:29:25.860Z,28.98
2023-05-14T14:31:53.037Z,29.71
2023-05-14T14:34:21.000Z,29.45
2023-05-14T14:36:48.030Z,28.31
2023-05-14T14:39:15.111Z,27.45
2023-05-14T14:41:42.225Z,26.91
2023-05-14T14:44:09.338Z,27.22
2023-05-14T14:46:36.469Z,27.86
2023-05-14T14:49:03.577Z,28.56
2023-05-14T14:51:31.404Z,28.88
2023-05-14T14:53:58.622Z,29.19
2023-05-14T14:56:27.296Z,29.25
2023-05-14T14:58:54.360Z,29.30
2023-05-14T15:01:22.868Z,30.07
2023-05-14T15:03:50.117Z,29.64
2023-05-14T15:06:17.301Z,29.83
2023-05-14T15:08:44.357Z,29.75
2023-05-14T15:11:11.626Z,29.99
2023-05-14T15:13:40.123Z,30.17
2023-05-14T15:16:07.737Z,30.24
2023-05-14T15:18:35.042Z,30.56
2023-05-14T15:21:02.310Z,30.80
2023-05-14T15:23:29.398Z,31.40
2023-05-14T15:25:56.499Z,31.05
2023-05-14T15:28:23.737Z,31.36
2023-05-14T15:30:50.765Z,31.64
2023-05-14T15:33:19.424Z,32.08
2023-05-14T15:35:46.946Z,32.50
2023-05-14T15:38:14.134Z,32.54
2023-05-14T15:40:41.646Z,32.25
2023-05-14T15:43:08.879Z,32.33
2023-05-14T15:45:36.552Z,32.48
2023-05-14T15:48:03.936Z,32.46
2023-05-14T15:50:31.125Z,32.43
2023-05-14T15:52:58.231Z,32.62
2023-05-14T15:55:25.423Z,32.62
2023-05-14T15:57:52.458Z,32.93
2023-05-14T16:00:20.328Z,32.95
2023-05-14T16:02:47.565Z,32.94
2023-05-14T16:05:15.368Z,32.84
2023-05-14T16:07:43.417Z,32.81
2023-05-14T16:10:10.972Z,32.95
2023-05-14T16:12:38.068Z,33.30
2023-05-14T16:15:07.890Z,33.02
2023-05-14T16:17:35.055Z,33.15
2023-05-14T16:20:02.403Z,33.34
2023-05-14T16:22:31.920Z,33.53
2023-05-14T16:25:00.671Z,34.13
2023-05-14T16:27:29.752Z,33.77
2023-05-14T16:29:56.779Z,34.09
2023-05-14T16:32:25.309Z,34.68
2023-05-14T16:34:52.597Z,34.82
2023-05-14T16:37:22.817Z,35.02
2023-05-14T16:39:49.964Z,35.15
2023-05-14T16:42:17.089Z,35.79
2023-05-14T16:44:44.332Z,36.21
2023-05-14T16:47:11.660Z,36.36
2023-05-14T16:49:38.731Z,37.20
2023-05-14T16:52:06.681Z,37.99
2023-05-14T16:54:33.689Z,38.99
2023-05-14T16:57:00.769Z,39.52
2023-05-14T16:59:27.934Z,39.50
2023-05-14T17:01:55.097Z,39.34
2023-05-14T17:04:24.963Z,39.75
2023-05-14T17:06:52.203Z,39.95
2023-05-14T17:09:19.569Z,39.90
2023-05-14T17:11:46.733Z,40.13
2023-05-14T17:14:13.783Z,39.97
2023-05-14T17:16:42.383Z,39.86
2023-05-14T17:19:09.569Z,39.95
2023-05-14T17:21:36.696Z,39.99
2023-05-14T17:24:03.896Z,39.97
2023-05-14T17:26:30.990Z,39.40
2023-05-14T17:28:58.090Z,39.60
2023-05-14T17:31:25.252Z,39.72
2023-05-14T17:33:52.347Z,39.43
2023-05-14T17:36:19.472Z,39.65
2023-05-14T17:38:47.170Z,39.51
2023-05-14T17:41:14.179Z,39.75
2023-05-14T17:43:41.236Z,39.37
2023-05-14T17:46:08.350Z,39.21
2023-05-14T17:48:35.425Z,39.07
2023-05-14T17:51:02.489Z,38.75
2023-05-14T17:53:29.683Z,38.80
2023-05-14T17:55:56.826Z,39.30
2023-05-14T17:58:25.124Z,39.77
2023-05-14T18:00:52.186Z,39.92
2023-05-14T18:03:20.407Z,40.39
2023-05-14T18:05:47.661Z,40.56
2023-05-14T18:08:14.924Z,40.66
2023-05-14T18:10:41.990Z,40.93
2023-05-14T18:13:09.054Z,41.00
2023-05-14T18:15:37.035Z,41.22
2023-05-14T18:18:04.697Z,41.57
2023-05-14T18:20:33.511Z,41.68
2023-05-14T18:23:02.982Z,42.28
2023-05-14T18:25:30.142Z,42.88
2023-05-14T18:27:57.264Z,43.17
2023-05-14T18:30:24.303Z,43.58
2023-05-14T18:32:51.559Z,43.69
2023-05-14T18:35:18.786Z,44.22
2023-05-14T18:37:46.062Z,43.90
2023-05-14T18:40:16.875Z,44.21
2023-05-14T18:42:45.621Z,44.20
2023-05-14T18:45:12.723Z,44.20
2023-05-14T18:47:40.089Z,44.64
2023-05-14T18:50:08.500Z,44.75
2023-05-14T18:52:35.771Z,44.97
2023-05-14T18:55:03.109Z,45.11
2023-05-14T18:57:32.204Z,45.08
2023-05-14T19:00:02.102Z,44.79
2023-05-14T19:02:29.277Z,44.87
2023-05-14T19:04:56.476Z,44.93
2023-05-14T19:07:23.648Z,44.98
2023-05-14T19:09:51.037Z,45.17
2023-05-14T19:12:18.207Z,45.35
2023-05-14T19:14:45.401Z,45.98
2023-05-14T19:17:12.506Z,46.41
2023-05-14T19:19:39.642Z,46.32
2023-05-14T19:22:06.980Z,46.38
2023-05-14T19:24:34.185Z,46.36
2023-05-14T19:27:01.463Z,46.54
2023-05-14T19:29:28.690Z,46.77
2023-05-14T19:31:56.094Z,46.77
2023-05-14T19:34:23.562Z,47.00
2023-05-14T19:36:51.004Z,46.97
2023-05-14T19:39:18.223Z,46.95
2023-05-14T19:41:45.464Z,47.27
2023-05-14T19:44:12.549Z,47.56
2023-05-14T19:46:40.656Z,47.85
2023-05-14T19:49:07.807Z,47.79
2023-05-14T19:51:34.876Z,47.93
2023-05-14T19:54:02.055Z,47.91
2023-05-14T19:56:29.242Z,48.43
2023-05-14T19:58:56.371Z,48.43
2023-05-14T20:01:23.536Z,48.64
2023-05-14T20:03:50.633Z,48.76
2023-05-14T20:06:18.544Z,49.00
2023-05-14T20:08:45.752Z,49.31
2023-05-14T20:11:13.064Z,49.45
2023-05-14T20:13:40.165Z,49.61
2023-05-14T20:16:07.464Z,49.94
2023-05-14T20:18:34.675Z,50.01
2023-05-14T20:21:01.878Z,50.04
2023-05-14T20:23:28.930Z,50.14
2023-05-14T20:25:56.028Z,50.17
2023-05-14T20:28:23.151Z,50.22
2023-05-14T20:30:50.270Z,50.25
2023-05-14T20:33:17.438Z,50.25
2023-05-14T20:35:44.816Z,50.50
2023-05-14T20:38:13.466Z,50.43
2023-05-14T20:40:40.708Z,50.39
2023-05-14T20:43:07.752Z,50.50
2023-05-14T20:45:34.793Z,50.53
2023-05-14T20:48:02.001Z,50.84
2023-05-14T20:50:29.157Z,51.27
2023-05-14T20:52:56.266Z,51.31
2023-05-14T20:55:23.828Z,51.62
2023-05-14T20:57:51.148Z,51.78
2023-05-14T21:00:19.106Z,51.86
2023-05-14T21:02:46.609Z,51.91
2023-05-14T21:05:14.088Z,52.16
2023-05-14T21:07:41.290Z,52.22
2023-05-14T21:10:11.693Z,52.13
2023-05-14T21:12:43.490Z,52.18
2023-05-14T21:15:12.837Z,52.29
2023-05-14T21:17:43.029Z,52.39
2023-05-14T21:20:16.590Z,52.42
2023-05-14T21:22:44.046Z,52.31
2023-05-14T21:25:11.375Z,52.58
2023-05-14T21:27:38.808Z,52.48
2023-05-14T21:30:07.074Z,52.33
2023-05-14T21:32:34.325Z,52.45
2023-05-14T21:35:01.904Z,52.45
2023-05-14T21:37:29.060Z,52.71
2023-05-14T21:39:56.556Z,53.07
2023-05-14T21:42:23.797Z,53.35
2023-05-14T21:44:51.001Z,53.27
2023-05-14T21:47:43.502Z,53.06
2023-05-14T21:50:11.179Z,52.89
2023-05-14T21:52:39.199Z,53.16
2023-05-14T21:55:06.605Z,53.31
2023-05-14T21:57:37.585Z,53.13
2023-05-14T22:00:10.552Z,53.19
2023-05-14T22:02:40.983Z,53.00
2023-05-14T22:05:08.463Z,53.16
2023-05-14T22:07:36.150Z,53.22
2023-05-14T22:10:03.975Z,53.30
2023-05-14T22:12:34.095Z,53.20
2023-05-14T22:15:01.763Z,53.29
2023-05-14T22:17:29.156Z,53.36
2023-05-14T22:19:56.589Z,53.23
2023-05-14T22:22:24.019Z,53.16
2023-05-14T22:24:51.208Z,52.93
2023-05-14T22:27:18.667Z,52.80
2023-05-14T22:29:45.937Z,52.71
2023-05-14T22:32:13.055Z,52.76
2023-05-14T22:34:40.108Z,52.80
2023-05-14T22:37:07.291Z,52.85
2023-05-14T22:39:34.639Z,52.64
2023-05-14T22:42:01.734Z,52.84
2023-05-14T22:44:29.962Z,52.20
2023-05-14T22:46:57.488Z,52.49
2023-05-14T22:49:24.706Z,52.13
2023-05-14T22:51:54.396Z,52.18
2023-05-14T22:54:21.830Z,52.13
2023-05-14T22:56:49.069Z,52.20
2023-05-14T22:59:16.155Z,51.57
2023-05-14T23:01:43.568Z,51.79
2023-05-14T23:04:10.820Z,51.23
2023-05-14T23:06:37.870Z,51.26
2023-05-14T23:09:04.976Z,51.48
2023-05-14T23:11:31.993Z,51.24
2023-05-14T23:13:59.046Z,50.99
2023-05-14T23:16:26.274Z,50.90
2023-05-14T23:18:53.488Z,51.15
2023-05-14T23:21:20.707Z,51.00
2023-05-14T23:23:48.589Z,51.01
2023-05-14T23:26:15.694Z,50.14
2023-05-14T23:28:42.801Z,50.83
2023-05-14T23:31:09.891Z,50.81
2023-05-14T23:33:37.076Z,50.81
2023-05-14T23:36:04.344Z,50.79
2023-05-14T23:38:31.904Z,51.24
2023-05-14T23:40:58.924Z,51.48
2023-05-14T23:43:26.119Z,51.53
2023-05-14T23:45:53.360Z,51.39
2023-05-14T23:48:20.696Z,51.33
2023-05-14T23:50:47.783Z,51.78
2023-05-14T23:53:14.824Z,51.80
2023-05-14T23:55:41.911Z,51.71
2023-05-14T23:58:09.078Z,52.08
